createdAt,value
2022-08-26T03:04:31.102Z,16.20
2022-08-26T03:07:01.073Z,16.20
2022-08-26T03:09:28.553Z,16.20
2022-08-26T03:11:55.789Z,16.20
2022-08-26T03:14:25.677Z,16.20
2022-08-26T03:16:55.104Z,16.20
2022-08-26T03:19:24.773Z,16.30
2022-08-26T03:21:53.654Z,16.20
2022-08-26T03:24:26.126Z,16.20
2022-08-26T03:26:53.358Z,16.20
2022-08-26T03:29:40.108Z,16.20
2022-08-26T03:32:07.776Z,16.10
2022-08-26T03:34:35.302Z,16.10
2022-08-26T03:37:02.690Z,16.00
2022-08-26T03:39:31.689Z,15.90
2022-08-26T03:41:59.924Z,15.90
2022-08-26T03:44:27.242Z,15.90
2022-08-26T03:46:55.018Z,15.90
2022-08-26T03:49:22.606Z,15.90
2022-08-26T03:51:50.439Z,15.90
2022-08-26T03:54:18.240Z,16.00
2022-08-26T03:56:46.560Z,16.00
2022-08-26T03:59:14.026Z,16.00
2022-08-26T04:01:41.775Z,16.00
2022-08-26T04:04:09.245Z,16.00
2022-08-26T04:06:44.919Z,16.00
2022-08-26T04:09:19.543Z,15.90
2022-08-26T04:11:50.623Z,15.90
2022-08-26T04:14:21.047Z,15.90
2022-08-26T04:16:48.563Z,15.90
2022-08-26T04:19:16.729Z,15.90
2022-08-26T04:21:45.153Z,15.80
2022-08-26T04:24:15.580Z,15.80
2022-08-26T04:26:43.878Z,15.80
2022-08-26T04:29:14.300Z,15.80
2022-08-26T04:31:41.682Z,15.70
2022-08-26T04:34:10.995Z,15.70
2022-08-26T04:36:39.129Z,15.70
2022-08-26T04:39:07.041Z,15.80
2022-08-26T04:41:34.315Z,15.80
2022-08-26T04:44:03.651Z,15.80
2022-08-26T04:46:30.960Z,15.80
2022-08-26T04:48:59.131Z,15.80
2022-08-26T04:51:29.379Z,15.80
2022-08-26T04:53:58.195Z,15.90
2022-08-26T04:56:27.966Z,15.90
2022-08-26T04:58:56.457Z,15.90
2022-08-26T05:01:24.448Z,15.90
2022-08-26T05:03:52.623Z,16.00
2022-08-26T05:06:20.556Z,16.00
2022-08-26T05:08:49.274Z,16.00
2022-08-26T05:11:16.624Z,15.90
2022-08-26T05:13:43.863Z,15.90
2022-08-26T05:16:13.716Z,16.00
2022-08-26T05:18:43.514Z,16.00
2022-08-26T05:21:21.521Z,16.10
2022-08-26T05:23:51.316Z,16.10
2022-08-26T05:26:22.886Z,16.10
2022-08-26T05:28:51.712Z,16.10
2022-08-26T05:31:28.361Z,16.30
2022-08-26T05:33:57.588Z,16.40
2022-08-26T05:36:28.212Z,16.50
2022-08-26T05:38:56.576Z,16.60
2022-08-26T05:41:34.614Z,16.80
2022-08-26T05:44:07.298Z,16.80
2022-08-26T05:46:35.912Z,17.10
2022-08-26T05:49:04.519Z,17.60
2022-08-26T05:51:33.465Z,18.40
2022-08-26T05:54:04.047Z,19.10
2022-08-26T05:56:31.500Z,19.30
2022-08-26T05:59:01.461Z,19.80
2022-08-26T06:01:29.993Z,20.60
2022-08-26T06:04:01.620Z,21.30
2022-08-26T06:06:32.315Z,21.80
2022-08-26T06:09:02.037Z,22.40
2022-08-26T06:11:32.443Z,22.90
2022-08-26T06:14:03.894Z,22.90
2022-08-26T06:16:34.857Z,22.80
2022-08-26T06:19:10.427Z,23.40
2022-08-26T06:21:40.282Z,24.00
2022-08-26T06:24:28.848Z,24.70
2022-08-26T06:26:59.012Z,25.00
2022-08-26T06:29:27.025Z,25.00
2022-08-26T06:31:56.435Z,25.30
2022-08-26T06:34:29.950Z,25.80
2022-08-26T06:37:02.367Z,26.30
2022-08-26T06:39:31.066Z,26.90
2022-08-26T06:42:02.947Z,27.50
2022-08-26T06:44:30.863Z,28.10
2022-08-26T06:46:59.696Z,28.10
2022-08-26T06:49:27.793Z,27.90
2022-08-26T06:51:59.576Z,28.00
2022-08-26T06:54:30.317Z,28.30
2022-08-26T06:56:57.906Z,28.30
2022-08-26T06:59:25.411Z,28.00
2022-08-26T07:01:53.331Z,27.90
2022-08-26T07:04:23.103Z,28.20
2022-08-26T07:06:53.400Z,28.60
2022-08-26T07:09:23.431Z,29.20
2022-08-26T07:11:51.368Z,29.70
2022-08-26T07:14:21.167Z,30.40
2022-08-26T07:16:50.383Z,30.70
2022-08-26T07:19:29.939Z,31.00
2022-08-26T07:22:04.617Z,30.90
2022-08-26T07:24:38.376Z,30.10
2022-08-26T07:27:08.645Z,29.70
2022-08-26T07:29:37.586Z,30.30
2022-08-26T07:32:05.599Z,31.10
2022-08-26T07:34:33.501Z,31.80
2022-08-26T07:37:01.381Z,31.40
2022-08-26T07:39:31.578Z,31.20
2022-08-26T07:42:07.583Z,31.40
2022-08-26T07:44:37.441Z,31.40
2022-08-26T07:47:24.071Z,31.00
2022-08-26T07:49:57.617Z,30.50
2022-08-26T07:52:27.529Z,30.10
2022-08-26T07:55:01.468Z,29.90
2022-08-26T07:57:30.422Z,29.50
2022-08-26T07:59:58.614Z,29.20
2022-08-26T08:02:29.498Z,29.10
2022-08-26T08:04:58.326Z,29.00
2022-08-26T08:07:44.177Z,29.00
2022-08-26T08:10:19.138Z,29.00
2022-08-26T08:12:49.039Z,29.10
2022-08-26T08:15:21.131Z,29.10
2022-08-26T08:17:50.580Z,29.40
2022-08-26T08:20:20.817Z,30.20
2022-08-26T08:22:48.752Z,31.20
2022-08-26T08:25:16.844Z,31.90
2022-08-26T08:27:48.731Z,32.60
2022-08-26T08:30:19.380Z,33.00
2022-08-26T08:32:50.534Z,33.50
2022-08-26T08:35:21.092Z,33.80
2022-08-26T08:37:50.873Z,34.20
2022-08-26T08:40:18.287Z,34.30
2022-08-26T08:43:03.949Z,34.00
2022-08-26T08:45:47.261Z,34.20
2022-08-26T08:48:19.684Z,34.40
2022-08-26T08:50:52.405Z,34.80
2022-08-26T08:53:42.125Z,35.00
2022-08-26T08:56:35.248Z,35.10
2022-08-26T08:59:24.214Z,35.10
2022-08-26T09:01:55.519Z,34.90
2022-08-26T09:04:25.507Z,34.90
2022-08-26T09:09:51.873Z,34.80
2022-08-26T09:12:30.325Z,34.40
2022-08-26T09:15:17.637Z,34.10
2022-08-26T09:18:26.837Z,34.00
2022-08-26T09:21:07.781Z,33.90
2022-08-26T09:23:37.553Z,33.80
2022-08-26T09:26:25.926Z,33.80
2022-08-26T09:28:59.575Z,33.60
2022-08-26T09:31:27.528Z,33.40
2022-08-26T09:34:12.435Z,33.30
2022-08-26T09:36:55.677Z,32.50
2022-08-26T09:39:28.262Z,31.70
2022-08-26T09:42:11.710Z,31.60
2022-08-26T09:44:59.512Z,31.30
2022-08-26T09:47:32.564Z,31.40
2022-08-26T09:50:19.435Z,31.10
2022-08-26T09:53:03.031Z,30.90
2022-08-26T09:55:38.267Z,30.70
2022-08-26T09:58:08.928Z,30.50
2022-08-26T10:00:40.400Z,30.60
2022-08-26T10:03:15.550Z,30.70
2022-08-26T10:06:01.042Z,30.70
2022-08-26T10:08:33.030Z,30.40
2022-08-26T10:11:04.478Z,30.20
2022-08-26T10:13:33.593Z,30.10
2022-08-26T10:16:19.286Z,30.00
2022-08-26T10:19:00.795Z,29.90
2022-08-26T10:21:31.332Z,30.00
2022-08-26T10:24:01.973Z,30.00
2022-08-26T10:27:02.347Z,30.00
2022-08-26T10:29:40.843Z,30.10
2022-08-26T10:32:21.812Z,30.20
2022-08-26T10:34:49.072Z,30.10
2022-08-26T10:37:22.782Z,29.60
2022-08-26T10:40:02.922Z,29.60
2022-08-26T10:42:41.885Z,29.80
2022-08-26T10:45:16.652Z,29.90
2022-08-26T10:47:50.568Z,29.80
2022-08-26T10:50:19.830Z,29.60
2022-08-26T10:53:26.389Z,29.70
2022-08-26T10:56:38.941Z,29.60
2022-08-26T10:59:12.758Z,29.60
2022-08-26T11:01:54.880Z,29.80
2022-08-26T11:04:35.013Z,29.70
2022-08-26T11:07:41.303Z,29.50
2022-08-26T11:10:20.695Z,29.60
2022-08-26T11:12:52.209Z,29.50
2022-08-26T11:15:24.558Z,29.20
2022-08-26T11:17:52.301Z,29.10
2022-08-26T11:20:42.136Z,29.10
2022-08-26T11:23:12.586Z,29.20
2022-08-26T11:26:05.320Z,29.30
2022-08-26T11:28:36.864Z,29.20
2022-08-26T11:31:08.636Z,29.20
2022-08-26T11:34:12.930Z,29.30
2022-08-26T11:36:42.103Z,29.20
2022-08-26T11:39:21.134Z,29.00
2022-08-26T11:41:52.722Z,28.80
2022-08-26T11:44:23.504Z,28.90
2022-08-26T11:47:00.157Z,29.00
2022-08-26T11:49:31.861Z,29.10
2022-08-26T11:52:11.266Z,29.10
2022-08-26T11:54:39.125Z,29.00
2022-08-26T11:57:12.338Z,29.00
2022-08-26T11:59:42.279Z,29.00
2022-08-26T12:02:16.794Z,28.90
2022-08-26T12:04:49.057Z,29.00
2022-08-26T12:07:18.501Z,28.80
2022-08-26T12:10:04.067Z,28.90
2022-08-26T12:12:38.573Z,28.90
2022-08-26T12:15:10.083Z,29.10
2022-08-26T12:17:39.360Z,29.10
2022-08-26T12:20:30.399Z,29.00
2022-08-26T12:22:59.078Z,28.90
2022-08-26T12:25:27.996Z,28.90
2022-08-26T12:28:05.431Z,28.70
2022-08-26T12:30:32.735Z,28.80
2022-08-26T12:33:15.756Z,28.70
2022-08-26T12:35:56.631Z,28.80
2022-08-26T12:38:25.896Z,28.90
2022-08-26T12:40:54.634Z,28.90
2022-08-26T12:43:45.230Z,28.90
2022-08-26T12:46:17.374Z,28.90
2022-08-26T12:48:49.585Z,28.90
2022-08-26T12:51:26.038Z,29.00
2022-08-26T12:53:54.040Z,29.10
2022-08-26T12:56:38.937Z,29.10
2022-08-26T12:59:19.798Z,29.20
2022-08-26T13:01:48.362Z,29.10
2022-08-26T13:04:33.736Z,29.10
2022-08-26T13:07:22.563Z,29.00
2022-08-26T13:09:51.716Z,29.10
2022-08-26T13:12:32.283Z,29.00
2022-08-26T13:15:01.117Z,29.00
2022-08-26T13:17:29.784Z,29.00
2022-08-26T13:20:03.220Z,29.00
2022-08-26T13:22:31.207Z,29.00
2022-08-26T13:24:58.453Z,29.00
2022-08-26T13:27:27.338Z,28.90
2022-08-26T13:29:55.461Z,28.90
2022-08-26T13:32:24.763Z,28.80
2022-08-26T13:34:56.317Z,28.80
2022-08-26T13:37:34.515Z,28.80
2022-08-26T13:40:05.591Z,28.80
2022-08-26T13:42:32.984Z,28.70
2022-08-26T13:45:02.357Z,28.80
2022-08-26T13:47:29.780Z,28.80
2022-08-26T13:49:56.982Z,28.70
2022-08-26T13:52:25.486Z,28.60
2022-08-26T13:55:02.016Z,28.60
2022-08-26T13:57:30.381Z,28.60
2022-08-26T13:59:59.384Z,28.60
2022-08-26T14:02:27.954Z,28.60
2022-08-26T14:04:55.866Z,28.60
2022-08-26T14:07:23.385Z,28.60
2022-08-26T14:09:50.664Z,28.70
2022-08-26T14:12:20.794Z,28.80
2022-08-26T14:14:48.193Z,28.90
2022-08-26T14:17:20.189Z,29.00
2022-08-26T14:19:49.476Z,29.00
2022-08-26T14:22:21.115Z,29.10
2022-08-26T14:24:49.204Z,29.10
2022-08-26T14:27:16.756Z,29.00
2022-08-26T14:29:44.024Z,29.00
2022-08-26T14:32:18.914Z,29.10
2022-08-26T14:34:49.067Z,29.30
2022-08-26T14:37:17.733Z,29.40
2022-08-26T14:39:45.963Z,29.40
2022-08-26T14:42:16.720Z,29.30
2022-08-26T14:44:46.086Z,29.40
2022-08-26T14:47:13.411Z,29.40
2022-08-26T14:49:40.686Z,29.50
2022-08-26T14:52:07.947Z,29.50
2022-08-26T14:54:35.148Z,29.60
2022-08-26T14:57:05.949Z,29.70
2022-08-26T14:59:37.133Z,29.70
2022-08-26T15:02:06.754Z,29.70
2022-08-26T15:04:34.545Z,29.50
2022-08-26T15:07:03.228Z,29.40
2022-08-26T15:09:33.217Z,29.20
2022-08-26T15:12:00.720Z,29.20
2022-08-26T15:14:32.682Z,28.90
2022-08-26T15:17:00.553Z,28.60
2022-08-26T15:19:28.138Z,28.60
2022-08-26T15:21:55.431Z,28.80
2022-08-26T15:24:25.330Z,28.90
2022-08-26T15:26:53.269Z,29.00
2022-08-26T15:29:21.248Z,28.90
2022-08-26T15:31:49.153Z,28.70
2022-08-26T15:34:17.242Z,28.60
2022-08-26T15:36:46.719Z,28.60
2022-08-26T15:39:16.166Z,28.60
2022-08-26T15:41:43.761Z,28.70
2022-08-26T15:44:12.136Z,28.80
2022-08-26T15:46:39.759Z,28.80
2022-08-26T15:49:07.580Z,28.80
2022-08-26T15:51:45.837Z,28.70
2022-08-26T15:54:16.518Z,28.50
2022-08-26T15:56:44.083Z,28.40
2022-08-26T15:59:12.035Z,28.30
2022-08-26T16:01:39.727Z,28.20
2022-08-26T16:04:07.376Z,28.00
2022-08-26T16:06:38.187Z,27.80
2022-08-26T16:09:07.540Z,27.70
2022-08-26T16:11:36.041Z,27.60
2022-08-26T16:14:04.612Z,27.60
2022-08-26T16:16:32.196Z,27.70
2022-08-26T16:19:01.275Z,27.70
2022-08-26T16:21:31.110Z,27.80
2022-08-26T16:23:58.905Z,27.90
2022-08-26T16:26:29.476Z,27.90
2022-08-26T16:28:56.795Z,27.90
2022-08-26T16:31:24.324Z,27.70
2022-08-26T16:33:51.752Z,27.60
2022-08-26T16:36:19.877Z,27.50
2022-08-26T16:38:53.163Z,27.40
2022-08-26T16:41:21.537Z,27.30
2022-08-26T16:43:49.428Z,27.10
2022-08-26T16:46:16.947Z,27.10
2022-08-26T16:48:45.488Z,26.90
2022-08-26T16:51:13.681Z,26.90
2022-08-26T16:53:40.886Z,26.80
2022-08-26T16:56:19.362Z,26.60
2022-08-26T16:58:48.282Z,26.50
2022-08-26T17:01:16.060Z,26.40
2022-08-26T17:03:43.380Z,26.30
2022-08-26T17:06:11.264Z,26.10
2022-08-26T17:08:39.859Z,26.10
2022-08-26T17:11:07.500Z,26.00
2022-08-26T17:13:36.179Z,25.90
2022-08-26T17:16:07.455Z,25.80
2022-08-26T17:18:35.206Z,25.70
2022-08-26T17:21:04.924Z,25.60
2022-08-26T17:23:32.454Z,25.60
2022-08-26T17:25:59.667Z,25.50
2022-08-26T17:28:26.983Z,25.40
2022-08-26T17:30:57.322Z,25.30
2022-08-26T17:33:25.467Z,25.30
2022-08-26T17:35:53.604Z,25.30
2022-08-26T17:38:21.665Z,25.20
2022-08-26T17:40:49.606Z,25.10
2022-08-26T17:43:17.805Z,25.10
2022-08-26T17:45:45.169Z,25.00
2022-08-26T17:48:13.050Z,24.90
2022-08-26T17:50:41.324Z,24.70
2022-08-26T17:53:12.574Z,24.70
2022-08-26T17:55:46.933Z,24.60
2022-08-26T17:58:15.263Z,24.50
2022-08-26T18:00:46.182Z,24.30
2022-08-26T18:03:13.827Z,24.30
2022-08-26T18:05:42.614Z,24.20
2022-08-26T18:08:10.224Z,24.10
2022-08-26T18:10:37.480Z,24.00
2022-08-26T18:13:04.754Z,24.00
2022-08-26T18:15:32.068Z,24.00
2022-08-26T18:17:59.854Z,23.90
2022-08-26T18:20:27.239Z,23.90
2022-08-26T18:22:54.519Z,23.90
2022-08-26T18:25:21.913Z,23.80
2022-08-26T18:27:49.350Z,23.70
2022-08-26T18:30:20.735Z,23.70
2022-08-26T18:32:49.126Z,23.70
2022-08-26T18:35:16.543Z,23.60
2022-08-26T18:37:44.545Z,23.60
2022-08-26T18:40:14.256Z,23.60
2022-08-26T18:42:41.880Z,23.70
2022-08-26T18:45:10.363Z,23.70
2022-08-26T18:47:43.909Z,23.70
2022-08-26T18:50:11.643Z,23.70
2022-08-26T18:52:39.271Z,23.70
2022-08-26T18:55:07.497Z,23.70
2022-08-26T18:57:34.755Z,23.60
2022-08-26T19:00:04.520Z,23.60
2022-08-26T19:02:32.716Z,23.50
2022-08-26T19:05:00.118Z,23.50
2022-08-26T19:07:27.354Z,23.40
2022-08-26T19:09:54.601Z,23.40
2022-08-26T19:12:22.416Z,23.30
2022-08-26T19:14:54.974Z,23.20
2022-08-26T19:17:22.582Z,23.10
2022-08-26T19:19:49.996Z,23.10
2022-08-26T19:22:17.238Z,23.00
2022-08-26T19:24:44.587Z,22.80
2022-08-26T19:27:14.899Z,22.80
2022-08-26T19:29:42.440Z,22.70
2022-08-26T19:32:09.727Z,22.60
2022-08-26T19:34:37.080Z,22.50
2022-08-26T19:37:04.729Z,22.40
2022-08-26T19:39:31.992Z,22.30
2022-08-26T19:42:00.318Z,22.20
2022-08-26T19:44:46.042Z,22.10
2022-08-26T19:47:13.383Z,22.00
2022-08-26T19:49:40.878Z,22.00
2022-08-26T19:52:08.414Z,21.80
2022-08-26T19:54:36.206Z,21.70
2022-08-26T19:57:03.791Z,21.60
2022-08-26T19:59:33.023Z,21.60
2022-08-26T20:02:00.715Z,21.40
2022-08-26T20:04:30.973Z,21.40
2022-08-26T20:07:00.508Z,21.30
2022-08-26T20:09:32.734Z,21.40
2022-08-26T20:12:00.738Z,21.40
2022-08-26T20:14:29.841Z,21.40
2022-08-26T20:16:57.744Z,21.30
2022-08-26T20:19:44.136Z,21.20
2022-08-26T20:22:12.409Z,21.20
2022-08-26T20:24:39.699Z,21.10
2022-08-26T20:27:08.078Z,21.10
2022-08-26T20:29:36.833Z,21.00
2022-08-26T20:32:06.532Z,20.90
2022-08-26T20:34:35.054Z,20.80
2022-08-26T20:37:03.089Z,20.80
2022-08-26T20:39:30.369Z,20.90
2022-08-26T20:41:58.285Z,20.80
2022-08-26T20:44:25.785Z,20.80
2022-08-26T20:49:21.043Z,20.80
2022-08-26T20:51:51.425Z,20.70
2022-08-26T20:54:23.924Z,20.70
2022-08-26T20:56:54.729Z,20.70
2022-08-26T20:59:22.001Z,20.70
